sensor_id;sensor_type;location;lat;lon;timestamp;P1;durP1;ratioP1;P2;durP2;ratioP2
40637;SDS011;26336;44.696;10.622;2023-08-17T00:02:03;9.25;;;8.38;;
40637;SDS011;26336;44.696;10.622;2023-08-17T00:05:07;8.68;;;7.88;;
40637;SDS011;26336;44.696;10.622;2023-08-17T00:08:11;8.90;;;8.05;;
40637;SDS011;26336;44.696;10.622;2023-08-17T00:11:15;9.75;;;8.75;;
40637;SDS011;26336;44.696;10.622;2023-08-17T00:14:22;10.85;;;8.23;;
40637;SDS011;26336;44.696;10.622;2023-08-17T00:17:26;8.75;;;7.97;;
40637;SDS011;26336;44.696;10.622;2023-08-17T00:20:30;8.15;;;7.40;;
40637;SDS011;26336;44.696;10.622;2023-08-17T00:23:34;9.50;;;8.45;;
40637;SDS011;26336;44.696;10.622;2023-08-17T00:26:38;11.30;;;8.18;;
40637;SDS011;26336;44.696;10.622;2023-08-17T00:29:42;8.77;;;7.90;;
40637;SDS011;26336;44.696;10.622;2023-08-17T00:32:46;9.05;;;8.15;;
40637;SDS011;26336;44.696;10.622;2023-08-17T00:35:50;9.15;;;8.25;;
40637;SDS011;26336;44.696;10.622;2023-08-17T00:38:55;11.68;;;8.18;;
40637;SDS011;26336;44.696;10.622;2023-08-17T00:41:59;8.85;;;8.10;;
40637;SDS011;26336;44.696;10.622;2023-08-17T00:45:03;9.63;;;8.65;;
40637;SDS011;26336;44.696;10.622;2023-08-17T00:48:07;10.00;;;9.18;;
40637;SDS011;26336;44.696;10.622;2023-08-17T00:51:12;9.98;;;8.30;;
40637;SDS011;26336;44.696;10.622;2023-08-17T00:54:18;10.25;;;8.38;;
40637;SDS011;26336;44.696;10.622;2023-08-17T00:57:27;9.15;;;8.27;;
40637;SDS011;26336;44.696;10.622;2023-08-17T01:00:31;9.40;;;8.55;;
40637;SDS011;26336;44.696;10.622;2023-08-17T01:03:36;10.95;;;8.52;;
40637;SDS011;26336;44.696;10.622;2023-08-17T01:06:44;10.10;;;9.10;;
40637;SDS011;26336;44.696;10.622;2023-08-17T01:09:48;9.95;;;9.00;;
40637;SDS011;26336;44.696;10.622;2023-08-17T01:16:21;9.90;;;9.10;;
40637;SDS011;26336;44.696;10.622;2023-08-17T01:19:46;9.75;;;8.73;;
40637;SDS011;26336;44.696;10.622;2023-08-17T01:22:55;11.07;;;10.05;;
40637;SDS011;26336;44.696;10.622;2023-08-17T01:26:01;10.38;;;9.38;;
40637;SDS011;26336;44.696;10.622;2023-08-17T01:29:05;10.27;;;9.40;;
40637;SDS011;26336;44.696;10.622;2023-08-17T01:32:16;11.85;;;9.73;;
40637;SDS011;26336;44.696;10.622;2023-08-17T01:35:39;10.18;;;9.27;;
40637;SDS011;26336;44.696;10.622;2023-08-17T01:39:00;10.63;;;9.73;;
40637;SDS011;26336;44.696;10.622;2023-08-17T01:42:07;10.63;;;9.73;;
40637;SDS011;26336;44.696;10.622;2023-08-17T01:45:12;11.63;;;10.52;;
40637;SDS011;26336;44.696;10.622;2023-08-17T01:48:16;13.20;;;12.05;;
40637;SDS011;26336;44.696;10.622;2023-08-17T01:51:20;13.48;;;12.27;;
40637;SDS011;26336;44.696;10.622;2023-08-17T01:54:24;11.68;;;10.63;;
40637;SDS011;26336;44.696;10.622;2023-08-17T01:57:28;14.10;;;12.48;;
40637;SDS011;26336;44.696;10.622;2023-08-17T02:00:32;12.80;;;11.60;;
40637;SDS011;26336;44.696;10.622;2023-08-17T02:03:36;13.10;;;11.82;;
40637;SDS011;26336;44.696;10.622;2023-08-17T02:06:40;12.25;;;11.15;;
40637;SDS011;26336;44.696;10.622;2023-08-17T02:09:44;13.10;;;12.00;;
40637;SDS011;26336;44.696;10.622;2023-08-17T02:12:48;12.32;;;11.32;;
40637;SDS011;26336;44.696;10.622;2023-08-17T02:15:54;12.75;;;11.65;;
40637;SDS011;26336;44.696;10.622;2023-08-17T02:18:58;12.82;;;11.68;;
40637;SDS011;26336;44.696;10.622;2023-08-17T02:22:02;12.63;;;11.55;;
40637;SDS011;26336;44.696;10.622;2023-08-17T02:25:09;13.10;;;11.90;;
40637;SDS011;26336;44.696;10.622;2023-08-17T02:28:13;13.13;;;11.93;;
40637;SDS011;26336;44.696;10.622;2023-08-17T02:31:17;13.05;;;11.73;;
40637;SDS011;26336;44.696;10.622;2023-08-17T02:34:21;12.30;;;11.27;;
40637;SDS011;26336;44.696;10.622;2023-08-17T02:37:25;12.95;;;11.85;;
40637;SDS011;26336;44.696;10.622;2023-08-17T02:40:29;12.15;;;11.05;;
40637;SDS011;26336;44.696;10.622;2023-08-17T02:43:33;13.13;;;11.98;;
40637;SDS011;26336;44.696;10.622;2023-08-17T02:46:37;12.15;;;10.95;;
40637;SDS011;26336;44.696;10.622;2023-08-17T02:49:41;12.50;;;11.48;;
40637;SDS011;26336;44.696;10.622;2023-08-17T02:52:46;13.50;;;11.68;;
40637;SDS011;26336;44.696;10.622;2023-08-17T02:55:50;11.82;;;10.90;;
40637;SDS011;26336;44.696;10.622;2023-08-17T02:58:54;12.45;;;11.35;;
40637;SDS011;26336;44.696;10.622;2023-08-17T03:01:58;11.32;;;10.40;;
40637;SDS011;26336;44.696;10.622;2023-08-17T03:05:03;12.73;;;11.40;;
40637;SDS011;26336;44.696;10.622;2023-08-17T03:08:07;12.23;;;11.23;;
40637;SDS011;26336;44.696;10.622;2023-08-17T03:11:11;20.15;;;11.32;;
40637;SDS011;26336;44.696;10.622;2023-08-17T03:14:15;12.65;;;11.45;;
40637;SDS011;26336;44.696;10.622;2023-08-17T03:17:20;12.60;;;11.50;;
40637;SDS011;26336;44.696;10.622;2023-08-17T03:20:24;13.80;;;12.50;;
40637;SDS011;26336;44.696;10.622;2023-08-17T03:23:28;12.63;;;11.52;;
40637;SDS011;26336;44.696;10.622;2023-08-17T03:26:33;16.30;;;12.80;;
40637;SDS011;26336;44.696;10.622;2023-08-17T03:29:39;14.52;;;13.23;;
40637;SDS011;26336;44.696;10.622;2023-08-17T03:32:43;13.13;;;11.93;;
40637;SDS011;26336;44.696;10.622;2023-08-17T03:35:47;14.60;;;13.25;;
40637;SDS011;26336;44.696;10.622;2023-08-17T03:38:51;14.57;;;13.10;;
40637;SDS011;26336;44.696;10.622;2023-08-17T03:41:55;13.25;;;11.88;;
40637;SDS011;26336;44.696;10.622;2023-08-17T03:44:59;12.50;;;11.30;;
40637;SDS011;26336;44.696;10.622;2023-08-17T03:48:04;12.90;;;11.73;;
40637;SDS011;26336;44.696;10.622;2023-08-17T03:51:10;13.75;;;12.45;;
40637;SDS011;26336;44.696;10.622;2023-08-17T03:54:14;14.13;;;12.88;;
40637;SDS011;26336;44.696;10.622;2023-08-17T03:57:18;13.95;;;12.55;;
40637;SDS011;26336;44.696;10.622;2023-08-17T04:00:22;14.00;;;12.70;;
40637;SDS011;26336;44.696;10.622;2023-08-17T04:03:32;14.57;;;13.27;;
40637;SDS011;26336;44.696;10.622;2023-08-17T04:06:37;14.48;;;13.18;;
40637;SDS011;26336;44.696;10.622;2023-08-17T04:09:44;14.65;;;13.45;;
40637;SDS011;26336;44.696;10.622;2023-08-17T04:12:48;15.05;;;13.65;;
40637;SDS011;26336;44.696;10.622;2023-08-17T04:15:52;14.20;;;12.60;;
40637;SDS011;26336;44.696;10.622;2023-08-17T04:18:56;13.85;;;12.60;;
40637;SDS011;26336;44.696;10.622;2023-08-17T04:22:00;15.13;;;13.60;;
40637;SDS011;26336;44.696;10.622;2023-08-17T04:25:05;14.13;;;12.55;;
40637;SDS011;26336;44.696;10.622;2023-08-17T04:28:10;14.25;;;13.05;;
40637;SDS011;26336;44.696;10.622;2023-08-17T04:31:14;13.30;;;12.10;;
40637;SDS011;26336;44.696;10.622;2023-08-17T04:34:20;13.32;;;12.23;;
40637;SDS011;26336;44.696;10.622;2023-08-17T04:37:24;14.90;;;13.32;;
40637;SDS011;26336;44.696;10.622;2023-08-17T04:40:29;14.32;;;13.02;;
40637;SDS011;26336;44.696;10.622;2023-08-17T04:43:35;13.02;;;11.82;;
40637;SDS011;26336;44.696;10.622;2023-08-17T04:46:39;13.98;;;12.68;;
40637;SDS011;26336;44.696;10.622;2023-08-17T04:49:43;15.18;;;13.63;;
40637;SDS011;26336;44.696;10.622;2023-08-17T04:52:50;15.60;;;13.98;;
40637;SDS011;26336;44.696;10.622;2023-08-17T04:55:55;14.77;;;13.27;;
40637;SDS011;26336;44.696;10.622;2023-08-17T04:58:59;14.30;;;12.88;;
40637;SDS011;26336;44.696;10.622;2023-08-17T05:02:03;14.63;;;13.20;;
40637;SDS011;26336;44.696;10.622;2023-08-17T05:05:10;15.05;;;13.65;;
40637;SDS011;26336;44.696;10.622;2023-08-17T05:08:14;15.43;;;13.52;;
40637;SDS011;26336;44.696;10.622;2023-08-17T05:11:18;14.82;;;13.43;;
40637;SDS011;26336;44.696;10.622;2023-08-17T05:14:23;14.52;;;12.75;;
40637;SDS011;26336;44.696;10.622;2023-08-17T05:17:27;13.77;;;12.27;;
40637;SDS011;26336;44.696;10.622;2023-08-17T05:20:32;13.02;;;11.95;;
40637;SDS011;26336;44.696;10.622;2023-08-17T05:23:37;12.95;;;11.85;;
40637;SDS011;26336;44.696;10.622;2023-08-17T05:26:41;13.07;;;11.93;;
40637;SDS011;26336;44.696;10.622;2023-08-17T05:29:50;13.35;;;12.07;;
40637;SDS011;26336;44.696;10.622;2023-08-17T05:32:55;12.50;;;11.38;;
40637;SDS011;26336;44.696;10.622;2023-08-17T05:35:59;14.45;;;13.07;;
40637;SDS011;26336;44.696;10.622;2023-08-17T05:39:04;13.95;;;11.60;;
40637;SDS011;26336;44.696;10.622;2023-08-17T05:42:08;12.73;;;11.63;;
40637;SDS011;26336;44.696;10.622;2023-08-17T05:45:16;14.27;;;12.35;;
40637;SDS011;26336;44.696;10.622;2023-08-17T05:48:20;13.43;;;12.23;;
40637;SDS011;26336;44.696;10.622;2023-08-17T05:51:26;12.10;;;11.07;;
40637;SDS011;26336;44.696;10.622;2023-08-17T05:54:30;12.45;;;11.35;;
40637;SDS011;26336;44.696;10.622;2023-08-17T05:57:34;12.80;;;11.70;;
40637;SDS011;26336;44.696;10.622;2023-08-17T06:00:38;12.85;;;11.65;;
40637;SDS011;26336;44.696;10.622;2023-08-17T06:03:42;13.10;;;11.90;;
40637;SDS011;26336;44.696;10.622;2023-08-17T06:06:46;13.88;;;12.57;;
40637;SDS011;26336;44.696;10.622;2023-08-17T06:09:50;13.18;;;11.77;;
40637;SDS011;26336;44.696;10.622;2023-08-17T06:12:55;14.68;;;11.88;;
40637;SDS011;26336;44.696;10.622;2023-08-17T06:16:00;12.80;;;11.65;;
40637;SDS011;26336;44.696;10.622;2023-08-17T06:19:04;12.38;;;11.27;;
40637;SDS011;26336;44.696;10.622;2023-08-17T06:22:08;12.05;;;11.05;;
40637;SDS011;26336;44.696;10.622;2023-08-17T06:25:12;13.20;;;11.73;;
40637;SDS011;26336;44.696;10.622;2023-08-17T06:28:16;13.13;;;11.80;;
40637;SDS011;26336;44.696;10.622;2023-08-17T06:31:20;12.55;;;11.10;;
40637;SDS011;26336;44.696;10.622;2023-08-17T06:34:26;13.75;;;12.35;;
40637;SDS011;26336;44.696;10.622;2023-08-17T06:37:30;12.93;;;11.80;;
40637;SDS011;26336;44.696;10.622;2023-08-17T06:40:34;13.13;;;11.93;;
40637;SDS011;26336;44.696;10.622;2023-08-17T06:43:38;13.85;;;12.43;;
40637;SDS011;26336;44.696;10.622;2023-08-17T06:46:43;12.73;;;11.63;;
40637;SDS011;26336;44.696;10.622;2023-08-17T06:49:46;15.05;;;11.48;;
40637;SDS011;26336;44.696;10.622;2023-08-17T06:52:51;13.25;;;11.05;;
40637;SDS011;26336;44.696;10.622;2023-08-17T06:55:55;11.25;;;10.25;;
40637;SDS011;26336;44.696;10.622;2023-08-17T06:58:59;11.63;;;10.55;;
40637;SDS011;26336;44.696;10.622;2023-08-17T07:02:03;11.70;;;10.65;;
40637;SDS011;26336;44.696;10.622;2023-08-17T07:05:07;10.75;;;9.65;;
40637;SDS011;26336;44.696;10.622;2023-08-17T07:08:11;10.10;;;8.98;;
40637;SDS011;26336;44.696;10.622;2023-08-17T07:11:16;9.75;;;8.25;;
40637;SDS011;26336;44.696;10.622;2023-08-17T07:14:20;10.60;;;8.40;;
40637;SDS011;26336;44.696;10.622;2023-08-17T07:17:26;9.82;;;7.88;;
40637;SDS011;26336;44.696;10.622;2023-08-17T07:20:30;9.77;;;8.38;;
40637;SDS011;26336;44.696;10.622;2023-08-17T07:23:34;8.90;;;8.02;;
40637;SDS011;26336;44.696;10.622;2023-08-17T07:26:38;7.63;;;6.85;;
40637;SDS011;26336;44.696;10.622;2023-08-17T07:29:44;6.95;;;6.22;;
40637;SDS011;26336;44.696;10.622;2023-08-17T07:32:48;9.27;;;6.30;;
40637;SDS011;26336;44.696;10.622;2023-08-17T07:35:54;6.35;;;5.75;;
40637;SDS011;26336;44.696;10.622;2023-08-17T07:38:59;6.90;;;5.80;;
40637;SDS011;26336;44.696;10.622;2023-08-17T07:42:04;9.52;;;6.72;;
40637;SDS011;26336;44.696;10.622;2023-08-17T07:45:08;7.25;;;6.45;;
40637;SDS011;26336;44.696;10.622;2023-08-17T07:48:13;6.05;;;5.55;;
40637;SDS011;26336;44.696;10.622;2023-08-17T07:51:17;7.15;;;6.10;;
40637;SDS011;26336;44.696;10.622;2023-08-17T07:54:21;6.30;;;5.72;;
40637;SDS011;26336;44.696;10.622;2023-08-17T07:57:25;9.52;;;6.40;;
40637;SDS011;26336;44.696;10.622;2023-08-17T08:00:29;8.27;;;6.03;;
40637;SDS011;26336;44.696;10.622;2023-08-17T08:03:33;6.57;;;6.03;;
40637;SDS011;26336;44.696;10.622;2023-08-17T08:06:37;8.25;;;5.93;;
40637;SDS011;26336;44.696;10.622;2023-08-17T08:09:41;6.53;;;5.57;;
40637;SDS011;26336;44.696;10.622;2023-08-17T08:12:45;9.63;;;5.07;;
40637;SDS011;26336;44.696;10.622;2023-08-17T08:15:49;5.93;;;5.20;;
40637;SDS011;26336;44.696;10.622;2023-08-17T08:18:53;9.18;;;5.03;;
40637;SDS011;26336;44.696;10.622;2023-08-17T08:21:56;7.15;;;5.65;;
40637;SDS011;26336;44.696;10.622;2023-08-17T08:25:00;4.78;;;4.38;;
40637;SDS011;26336;44.696;10.622;2023-08-17T08:28:05;5.47;;;4.95;;
40637;SDS011;26336;44.696;10.622;2023-08-17T08:31:09;6.20;;;5.60;;
40637;SDS011;26336;44.696;10.622;2023-08-17T08:34:13;5.10;;;4.60;;
40637;SDS011;26336;44.696;10.622;2023-08-17T08:37:17;8.00;;;5.57;;
40637;SDS011;26336;44.696;10.622;2023-08-17T08:40:26;5.75;;;5.20;;
40637;SDS011;26336;44.696;10.622;2023-08-17T08:43:31;6.43;;;5.40;;
40637;SDS011;26336;44.696;10.622;2023-08-17T08:46:35;6.68;;;4.80;;
40637;SDS011;26336;44.696;10.622;2023-08-17T08:49:50;5.40;;;4.90;;
40637;SDS011;26336;44.696;10.622;2023-08-17T08:53:17;5.63;;;4.68;;
40637;SDS011;26336;44.696;10.622;2023-08-17T08:56:24;6.68;;;5.85;;
40637;SDS011;26336;44.696;10.622;2023-08-17T08:59:29;6.20;;;5.60;;
40637;SDS011;26336;44.696;10.622;2023-08-17T09:02:34;8.02;;;6.18;;
40637;SDS011;26336;44.696;10.622;2023-08-17T09:05:38;8.18;;;5.13;;
40637;SDS011;26336;44.696;10.622;2023-08-17T09:08:44;9.48;;;6.47;;
40637;SDS011;26336;44.696;10.622;2023-08-17T09:11:49;5.93;;;5.43;;
40637;SDS011;26336;44.696;10.622;2023-08-17T09:14:53;5.82;;;5.20;;
40637;SDS011;26336;44.696;10.622;2023-08-17T09:17:57;6.55;;;5.75;;
40637;SDS011;26336;44.696;10.622;2023-08-17T09:21:01;6.47;;;5.88;;
40637;SDS011;26336;44.696;10.622;2023-08-17T09:24:06;9.63;;;5.75;;
40637;SDS011;26336;44.696;10.622;2023-08-17T09:27:13;8.55;;;6.40;;
40637;SDS011;26336;44.696;10.622;2023-08-17T09:30:17;8.57;;;7.78;;
40637;SDS011;26336;44.696;10.622;2023-08-17T09:33:22;7.10;;;6.40;;
40637;SDS011;26336;44.696;10.622;2023-08-17T09:36:30;10.60;;;6.97;;
40637;SDS011;26336;44.696;10.622;2023-08-17T09:39:34;9.60;;;6.85;;
40637;SDS011;26336;44.696;10.622;2023-08-17T09:42:41;9.73;;;7.15;;
40637;SDS011;26336;44.696;10.622;2023-08-17T09:45:48;9.35;;;6.45;;
40637;SDS011;26336;44.696;10.622;2023-08-17T09:48:53;7.45;;;5.75;;
40637;SDS011;26336;44.696;10.622;2023-08-17T09:52:00;8.07;;;6.65;;
40637;SDS011;26336;44.696;10.622;2023-08-17T09:55:06;8.02;;;7.07;;
40637;SDS011;26336;44.696;10.622;2023-08-17T09:58:13;6.43;;;5.93;;
40637;SDS011;26336;44.696;10.622;2023-08-17T10:01:21;7.07;;;6.38;;
40637;SDS011;26336;44.696;10.622;2023-08-17T10:04:26;7.97;;;5.70;;
40637;SDS011;26336;44.696;10.622;2023-08-17T10:07:33;8.35;;;6.88;;
40637;SDS011;26336;44.696;10.622;2023-08-17T10:10:44;6.72;;;6.03;;
40637;SDS011;26336;44.696;10.622;2023-08-17T10:17:10;7.35;;;6.65;;
40637;SDS011;26336;44.696;10.622;2023-08-17T10:20:16;9.75;;;6.47;;
40637;SDS011;26336;44.696;10.622;2023-08-17T10:23:22;8.45;;;6.30;;
40637;SDS011;26336;44.696;10.622;2023-08-17T10:26:27;8.35;;;5.55;;
40637;SDS011;26336;44.696;10.622;2023-08-17T10:29:33;8.55;;;5.97;;
40637;SDS011;26336;44.696;10.622;2023-08-17T10:32:38;7.85;;;6.25;;
40637;SDS011;26336;44.696;10.622;2023-08-17T10:35:44;8.15;;;5.88;;
40637;SDS011;26336;44.696;10.622;2023-08-17T10:45:54;15.20;;;7.20;;
40637;SDS011;26336;44.696;10.622;2023-08-17T10:49:00;7.97;;;6.35;;
40637;SDS011;26336;44.696;10.622;2023-08-17T10:52:07;7.88;;;6.28;;
40637;SDS011;26336;44.696;10.622;2023-08-17T10:55:14;8.32;;;5.88;;
40637;SDS011;26336;44.696;10.622;2023-08-17T10:58:19;7.00;;;5.95;;
40637;SDS011;26336;44.696;10.622;2023-08-17T11:01:33;8.75;;;6.43;;
40637;SDS011;26336;44.696;10.622;2023-08-17T11:04:50;7.10;;;6.40;;
40637;SDS011;26336;44.696;10.622;2023-08-17T11:07:56;6.10;;;5.50;;
40637;SDS011;26336;44.696;10.622;2023-08-17T11:14:09;7.82;;;7.03;;
40637;SDS011;26336;44.696;10.622;2023-08-17T11:17:13;7.88;;;6.88;;
40637;SDS011;26336;44.696;10.622;2023-08-17T11:20:16;7.82;;;7.13;;
40637;SDS011;26336;44.696;10.622;2023-08-17T11:23:21;7.85;;;7.20;;
40637;SDS011;26336;44.696;10.622;2023-08-17T11:26:27;8.57;;;6.80;;
40637;SDS011;26336;44.696;10.622;2023-08-17T11:29:33;10.20;;;7.40;;
40637;SDS011;26336;44.696;10.622;2023-08-17T11:32:37;7.68;;;6.68;;
40637;SDS011;26336;44.696;10.622;2023-08-17T11:35:45;9.00;;;7.35;;
40637;SDS011;26336;44.696;10.622;2023-08-17T11:38:53;6.57;;;5.97;;
40637;SDS011;26336;44.696;10.622;2023-08-17T11:41:56;10.68;;;6.93;;
40637;SDS011;26336;44.696;10.622;2023-08-17T11:45:01;7.50;;;6.75;;
40637;SDS011;26336;44.696;10.622;2023-08-17T11:48:05;9.50;;;8.52;;
40637;SDS011;26336;44.696;10.622;2023-08-17T11:51:09;9.88;;;7.95;;
40637;SDS011;26336;44.696;10.622;2023-08-17T11:54:15;8.80;;;8.00;;
40637;SDS011;26336;44.696;10.622;2023-08-17T11:57:19;6.70;;;6.15;;
40637;SDS011;26336;44.696;10.622;2023-08-17T12:00:23;7.80;;;7.20;;
40637;SDS011;26336;44.696;10.622;2023-08-17T12:03:32;7.90;;;7.28;;
40637;SDS011;26336;44.696;10.622;2023-08-17T12:06:37;9.85;;;7.78;;
40637;SDS011;26336;44.696;10.622;2023-08-17T12:12:52;9.32;;;8.38;;
40637;SDS011;26336;44.696;10.622;2023-08-17T12:15:56;10.18;;;8.85;;
40637;SDS011;26336;44.696;10.622;2023-08-17T12:19:01;8.63;;;7.72;;
40637;SDS011;26336;44.696;10.622;2023-08-17T12:22:05;8.70;;;7.90;;
40637;SDS011;26336;44.696;10.622;2023-08-17T12:25:11;10.57;;;9.50;;
40637;SDS011;26336;44.696;10.622;2023-08-17T12:28:15;10.23;;;9.05;;
40637;SDS011;26336;44.696;10.622;2023-08-17T12:31:23;10.13;;;9.10;;
40637;SDS011;26336;44.696;10.622;2023-08-17T12:34:27;8.15;;;7.45;;
40637;SDS011;26336;44.696;10.622;2023-08-17T12:37:31;11.25;;;10.10;;
40637;SDS011;26336;44.696;10.622;2023-08-17T12:40:35;11.23;;;10.13;;
40637;SDS011;26336;44.696;10.622;2023-08-17T12:43:39;9.65;;;8.75;;
40637;SDS011;26336;44.696;10.622;2023-08-17T12:46:43;11.68;;;10.52;;
40637;SDS011;26336;44.696;10.622;2023-08-17T12:49:47;9.48;;;8.68;;
40637;SDS011;26336;44.696;10.622;2023-08-17T12:52:54;12.38;;;9.38;;
40637;SDS011;26336;44.696;10.622;2023-08-17T12:55:58;11.80;;;10.55;;
40637;SDS011;26336;44.696;10.622;2023-08-17T12:59:02;10.95;;;9.90;;
40637;SDS011;26336;44.696;10.622;2023-08-17T13:02:06;10.90;;;9.45;;
40637;SDS011;26336;44.696;10.622;2023-08-17T13:05:30;11.60;;;9.48;;
40637;SDS011;26336;44.696;10.622;2023-08-17T13:08:35;11.23;;;10.13;;
40637;SDS011;26336;44.696;10.622;2023-08-17T13:11:39;9.90;;;9.05;;
40637;SDS011;26336;44.696;10.622;2023-08-17T13:14:43;9.30;;;8.40;;
40637;SDS011;26336;44.696;10.622;2023-08-17T13:17:47;10.18;;;9.30;;
40637;SDS011;26336;44.696;10.622;2023-08-17T13:20:51;16.10;;;10.68;;
40637;SDS011;26336;44.696;10.622;2023-08-17T13:23:58;11.38;;;10.20;;
40637;SDS011;26336;44.696;10.622;2023-08-17T13:27:02;11.60;;;10.52;;
40637;SDS011;26336;44.696;10.622;2023-08-17T13:30:24;12.02;;;10.77;;
40637;SDS011;26336;44.696;10.622;2023-08-17T13:33:28;11.80;;;8.52;;
40637;SDS011;26336;44.696;10.622;2023-08-17T13:36:33;10.82;;;9.38;;
40637;SDS011;26336;44.696;10.622;2023-08-17T13:39:40;8.90;;;8.15;;
40637;SDS011;26336;44.696;10.622;2023-08-17T13:42:45;9.13;;;8.32;;
40637;SDS011;26336;44.696;10.622;2023-08-17T13:45:49;9.48;;;8.27;;
40637;SDS011;26336;44.696;10.622;2023-08-17T13:48:52;9.20;;;8.40;;
40637;SDS011;26336;44.696;10.622;2023-08-17T13:51:57;11.38;;;8.57;;
40637;SDS011;26336;44.696;10.622;2023-08-17T13:55:01;9.85;;;8.77;;
40637;SDS011;26336;44.696;10.622;2023-08-17T13:58:06;9.02;;;8.13;;
40637;SDS011;26336;44.696;10.622;2023-08-17T14:01:13;9.38;;;8.43;;
40637;SDS011;26336;44.696;10.622;2023-08-17T14:04:17;8.55;;;7.85;;
40637;SDS011;26336;44.696;10.622;2023-08-17T14:07:24;9.15;;;8.30;;
40637;SDS011;26336;44.696;10.622;2023-08-17T14:10:28;10.68;;;9.02;;
40637;SDS011;26336;44.696;10.622;2023-08-17T14:13:35;11.48;;;8.98;;
40637;SDS011;26336;44.696;10.622;2023-08-17T14:16:39;11.05;;;9.00;;
40637;SDS011;26336;44.696;10.622;2023-08-17T14:19:46;11.48;;;8.85;;
40637;SDS011;26336;44.696;10.622;2023-08-17T14:22:50;8.30;;;7.60;;
40637;SDS011;26336;44.696;10.622;2023-08-17T14:25:53;8.35;;;7.63;;
40637;SDS011;26336;44.696;10.622;2023-08-17T14:28:57;10.57;;;9.35;;
40637;SDS011;26336;44.696;10.622;2023-08-17T14:32:02;9.05;;;7.32;;
40637;SDS011;26336;44.696;10.622;2023-08-17T14:35:06;8.35;;;7.55;;
40637;SDS011;26336;44.696;10.622;2023-08-17T14:38:11;10.63;;;8.13;;
40637;SDS011;26336;44.696;10.622;2023-08-17T14:41:16;9.57;;;8.60;;
40637;SDS011;26336;44.696;10.622;2023-08-17T14:44:20;10.45;;;9.40;;
40637;SDS011;26336;44.696;10.622;2023-08-17T14:47:24;11.18;;;9.00;;
40637;SDS011;26336;44.696;10.622;2023-08-17T14:50:29;9.82;;;8.95;;
40637;SDS011;26336;44.696;10.622;2023-08-17T14:53:33;10.77;;;9.77;;
40637;SDS011;26336;44.696;10.622;2023-08-17T14:56:37;9.27;;;8.52;;
40637;SDS011;26336;44.696;10.622;2023-08-17T14:59:42;9.20;;;8.35;;
40637;SDS011;26336;44.696;10.622;2023-08-17T15:02:46;9.13;;;8.32;;
40637;SDS011;26336;44.696;10.622;2023-08-17T15:05:49;8.90;;;8.00;;
40637;SDS011;26336;44.696;10.622;2023-08-17T15:08:54;9.75;;;8.80;;
40637;SDS011;26336;44.696;10.622;2023-08-17T15:11:58;9.30;;;8.32;;
40637;SDS011;26336;44.696;10.622;2023-08-17T15:15:02;9.70;;;8.70;;
40637;SDS011;26336;44.696;10.622;2023-08-17T15:18:08;11.10;;;9.15;;
40637;SDS011;26336;44.696;10.622;2023-08-17T15:21:12;9.43;;;8.60;;
40637;SDS011;26336;44.696;10.622;2023-08-17T15:24:16;9.10;;;8.15;;
40637;SDS011;26336;44.696;10.622;2023-08-17T15:27:22;9.70;;;8.73;;
40637;SDS011;26336;44.696;10.622;2023-08-17T15:30:26;8.63;;;7.82;;
40637;SDS011;26336;44.696;10.622;2023-08-17T15:33:36;8.73;;;7.95;;
40637;SDS011;26336;44.696;10.622;2023-08-17T15:36:47;10.45;;;9.07;;
40637;SDS011;26336;44.696;10.622;2023-08-17T15:39:51;8.85;;;8.15;;
40637;SDS011;26336;44.696;10.622;2023-08-17T15:42:58;9.77;;;8.98;;
40637;SDS011;26336;44.696;10.622;2023-08-17T15:46:02;13.68;;;9.43;;
40637;SDS011;26336;44.696;10.622;2023-08-17T15:49:07;9.52;;;8.52;;
40637;SDS011;26336;44.696;10.622;2023-08-17T15:52:14;10.63;;;8.68;;
40637;SDS011;26336;44.696;10.622;2023-08-17T15:55:22;8.52;;;7.72;;
40637;SDS011;26336;44.696;10.622;2023-08-17T15:58:26;8.85;;;8.05;;
40637;SDS011;26336;44.696;10.622;2023-08-17T16:01:29;12.75;;;8.93;;
40637;SDS011;26336;44.696;10.622;2023-08-17T16:04:34;9.75;;;8.75;;
40637;SDS011;26336;44.696;10.622;2023-08-17T16:07:39;9.63;;;8.70;;
40637;SDS011;26336;44.696;10.622;2023-08-17T16:10:42;9.93;;;8.95;;
40637;SDS011;26336;44.696;10.622;2023-08-17T16:13:47;9.52;;;8.70;;
40637;SDS011;26336;44.696;10.622;2023-08-17T16:16:51;10.02;;;7.88;;
40637;SDS011;26336;44.696;10.622;2023-08-17T16:19:56;9.40;;;8.60;;
40637;SDS011;26336;44.696;10.622;2023-08-17T16:23:00;9.48;;;8.38;;
40637;SDS011;26336;44.696;10.622;2023-08-17T16:26:04;9.70;;;8.73;;
40637;SDS011;26336;44.696;10.622;2023-08-17T16:29:08;9.50;;;8.50;;
40637;SDS011;26336;44.696;10.622;2023-08-17T16:32:12;9.15;;;8.38;;
40637;SDS011;26336;44.696;10.622;2023-08-17T16:35:16;8.93;;;7.85;;
40637;SDS011;26336;44.696;10.622;2023-08-17T16:38:22;8.60;;;7.60;;
40637;SDS011;26336;44.696;10.622;2023-08-17T16:41:28;9.30;;;8.32;;
40637;SDS011;26336;44.696;10.622;2023-08-17T16:44:31;9.65;;;7.65;;
40637;SDS011;26336;44.696;10.622;2023-08-17T16:47:36;8.32;;;7.45;;
40637;SDS011;26336;44.696;10.622;2023-08-17T16:50:40;7.65;;;6.85;;
40637;SDS011;26336;44.696;10.622;2023-08-17T16:53:47;7.22;;;6.63;;
40637;SDS011;26336;44.696;10.622;2023-08-17T16:56:57;8.52;;;7.72;;
40637;SDS011;26336;44.696;10.622;2023-08-17T17:00:02;7.47;;;6.63;;
40637;SDS011;26336;44.696;10.622;2023-08-17T17:03:11;8.90;;;7.38;;
40637;SDS011;26336;44.696;10.622;2023-08-17T17:06:17;7.78;;;7.13;;
40637;SDS011;26336;44.696;10.622;2023-08-17T17:09:21;7.15;;;6.55;;
40637;SDS011;26336;44.696;10.622;2023-08-17T17:12:26;8.38;;;7.13;;
40637;SDS011;26336;44.696;10.622;2023-08-17T17:15:30;10.02;;;8.10;;
40637;SDS011;26336;44.696;10.622;2023-08-17T17:18:37;7.90;;;7.03;;
40637;SDS011;26336;44.696;10.622;2023-08-17T17:21:41;7.93;;;7.25;;
40637;SDS011;26336;44.696;10.622;2023-08-17T17:24:45;8.63;;;7.93;;
40637;SDS011;26336;44.696;10.622;2023-08-17T17:27:52;9.20;;;8.15;;
40637;SDS011;26336;44.696;10.622;2023-08-17T17:30:58;8.57;;;7.57;;
40637;SDS011;26336;44.696;10.622;2023-08-17T17:34:06;8.25;;;7.43;;
40637;SDS011;26336;44.696;10.622;2023-08-17T17:37:14;10.35;;;8.68;;
40637;SDS011;26336;44.696;10.622;2023-08-17T17:40:21;9.77;;;8.75;;
40637;SDS011;26336;44.696;10.622;2023-08-17T17:43:25;10.52;;;8.95;;
40637;SDS011;26336;44.696;10.622;2023-08-17T17:46:29;12.27;;;9.73;;
40637;SDS011;26336;44.696;10.622;2023-08-17T17:49:34;11.90;;;10.57;;
40637;SDS011;26336;44.696;10.622;2023-08-17T17:52:38;13.07;;;9.93;;
40637;SDS011;26336;44.696;10.622;2023-08-17T17:55:43;12.88;;;10.85;;
40637;SDS011;26336;44.696;10.622;2023-08-17T17:58:47;11.07;;;9.98;;
40637;SDS011;26336;44.696;10.622;2023-08-17T18:01:51;11.73;;;10.23;;
40637;SDS011;26336;44.696;10.622;2023-08-17T18:04:55;11.65;;;10.65;;
40637;SDS011;26336;44.696;10.622;2023-08-17T18:08:06;12.45;;;9.52;;
40637;SDS011;26336;44.696;10.622;2023-08-17T18:11:16;12.00;;;8.82;;
40637;SDS011;26336;44.696;10.622;2023-08-17T18:14:20;10.93;;;9.38;;
40637;SDS011;26336;44.696;10.622;2023-08-17T18:17:26;9.07;;;8.18;;
40637;SDS011;26336;44.696;10.622;2023-08-17T18:20:35;13.73;;;9.05;;
40637;SDS011;26336;44.696;10.622;2023-08-17T18:23:39;12.77;;;9.18;;
40637;SDS011;26336;44.696;10.622;2023-08-17T18:26:44;9.27;;;8.50;;